sensor_id;sensor_type;location;lat;lon;timestamp;P1;durP1;ratioP1;P2;durP2;ratioP2
60700;SDS011;46541;49.894;10.886;2023-12-14T00:01:47;13.05;;;8.07;;
60700;SDS011;46541;49.894;10.886;2023-12-14T00:04:15;11.73;;;7.65;;
60700;SDS011;46541;49.894;10.886;2023-12-14T00:06:41;15.02;;;8.43;;
60700;SDS011;46541;49.894;10.886;2023-12-14T00:09:08;10.77;;;7.65;;
60700;SDS011;46541;49.894;10.886;2023-12-14T00:11:38;12.52;;;7.82;;
60700;SDS011;46541;49.894;10.886;2023-12-14T00:14:05;12.82;;;8.15;;
60700;SDS011;46541;49.894;10.886;2023-12-14T00:16:32;14.10;;;7.40;;
60700;SDS011;46541;49.894;10.886;2023-12-14T00:18:59;15.43;;;8.55;;
60700;SDS011;46541;49.894;10.886;2023-12-14T00:21:26;13.75;;;9.30;;
60700;SDS011;46541;49.894;10.886;2023-12-14T00:23:53;14.23;;;9.55;;
60700;SDS011;46541;49.894;10.886;2023-12-14T00:26:19;15.80;;;9.80;;
60700;SDS011;46541;49.894;10.886;2023-12-14T00:28:46;16.58;;;10.38;;
60700;SDS011;46541;49.894;10.886;2023-12-14T00:31:13;16.33;;;9.82;;
60700;SDS011;46541;49.894;10.886;2023-12-14T00:33:40;15.82;;;10.80;;
60700;SDS011;46541;49.894;10.886;2023-12-14T00:36:07;15.77;;;10.50;;
60700;SDS011;46541;49.894;10.886;2023-12-14T00:38:34;15.73;;;10.52;;
60700;SDS011;46541;49.894;10.886;2023-12-14T00:41:00;16.30;;;11.07;;
60700;SDS011;46541;49.894;10.886;2023-12-14T00:43:27;15.13;;;10.25;;
60700;SDS011;46541;49.894;10.886;2023-12-14T00:45:54;15.75;;;10.48;;
60700;SDS011;46541;49.894;10.886;2023-12-14T00:48:21;15.18;;;9.98;;
60700;SDS011;46541;49.894;10.886;2023-12-14T00:50:48;14.10;;;9.20;;
60700;SDS011;46541;49.894;10.886;2023-12-14T00:53:14;14.23;;;9.73;;
60700;SDS011;46541;49.894;10.886;2023-12-14T00:55:41;14.43;;;10.43;;
60700;SDS011;46541;49.894;10.886;2023-12-14T00:58:08;19.38;;;11.77;;
60700;SDS011;46541;49.894;10.886;2023-12-14T01:00:35;19.98;;;12.48;;
60700;SDS011;46541;49.894;10.886;2023-12-14T01:03:01;21.52;;;12.13;;
60700;SDS011;46541;49.894;10.886;2023-12-14T01:05:29;19.80;;;11.88;;
60700;SDS011;46541;49.894;10.886;2023-12-14T01:07:55;21.65;;;12.90;;
60700;SDS011;46541;49.894;10.886;2023-12-14T01:10:22;23.85;;;12.68;;
60700;SDS011;46541;49.894;10.886;2023-12-14T01:12:49;20.45;;;12.50;;
60700;SDS011;46541;49.894;10.886;2023-12-14T01:15:16;18.33;;;11.60;;
60700;SDS011;46541;49.894;10.886;2023-12-14T01:17:43;19.95;;;12.50;;
60700;SDS011;46541;49.894;10.886;2023-12-14T01:20:10;24.60;;;13.95;;
60700;SDS011;46541;49.894;10.886;2023-12-14T01:22:37;22.05;;;12.82;;
60700;SDS011;46541;49.894;10.886;2023-12-14T01:25:04;22.92;;;12.82;;
60700;SDS011;46541;49.894;10.886;2023-12-14T01:27:31;22.80;;;13.32;;
60700;SDS011;46541;49.894;10.886;2023-12-14T01:29:58;28.10;;;13.90;;
60700;SDS011;46541;49.894;10.886;2023-12-14T01:32:25;27.23;;;13.45;;
60700;SDS011;46541;49.894;10.886;2023-12-14T01:34:51;29.85;;;14.60;;
60700;SDS011;46541;49.894;10.886;2023-12-14T01:37:18;28.15;;;15.32;;
60700;SDS011;46541;49.894;10.886;2023-12-14T01:39:45;28.50;;;15.20;;
60700;SDS011;46541;49.894;10.886;2023-12-14T01:42:12;28.45;;;13.82;;
60700;SDS011;46541;49.894;10.886;2023-12-14T01:44:39;35.25;;;14.95;;
60700;SDS011;46541;49.894;10.886;2023-12-14T01:47:06;37.47;;;17.00;;
60700;SDS011;46541;49.894;10.886;2023-12-14T01:49:33;36.30;;;17.38;;
60700;SDS011;46541;49.894;10.886;2023-12-14T01:52:00;33.33;;;15.13;;
60700;SDS011;46541;49.894;10.886;2023-12-14T01:54:27;32.63;;;16.05;;
60700;SDS011;46541;49.894;10.886;2023-12-14T01:56:54;38.85;;;16.63;;
60700;SDS011;46541;49.894;10.886;2023-12-14T01:59:21;31.08;;;15.27;;
60700;SDS011;46541;49.894;10.886;2023-12-14T02:01:52;33.70;;;15.63;;
60700;SDS011;46541;49.894;10.886;2023-12-14T02:04:23;33.20;;;15.20;;
60700;SDS011;46541;49.894;10.886;2023-12-14T02:06:51;37.47;;;17.05;;
60700;SDS011;46541;49.894;10.886;2023-12-14T02:09:18;32.08;;;14.88;;
60700;SDS011;46541;49.894;10.886;2023-12-14T02:11:44;33.75;;;16.52;;
60700;SDS011;46541;49.894;10.886;2023-12-14T02:14:11;35.25;;;16.48;;
60700;SDS011;46541;49.894;10.886;2023-12-14T02:16:38;34.47;;;15.73;;
60700;SDS011;46541;49.894;10.886;2023-12-14T02:19:05;36.80;;;16.38;;
60700;SDS011;46541;49.894;10.886;2023-12-14T02:21:32;31.30;;;15.90;;
60700;SDS011;46541;49.894;10.886;2023-12-14T02:23:59;35.47;;;15.23;;
60700;SDS011;46541;49.894;10.886;2023-12-14T02:26:26;36.17;;;16.50;;
60700;SDS011;46541;49.894;10.886;2023-12-14T02:28:52;28.63;;;14.95;;
60700;SDS011;46541;49.894;10.886;2023-12-14T02:31:19;29.85;;;14.27;;
60700;SDS011;46541;49.894;10.886;2023-12-14T02:33:46;28.83;;;14.18;;
60700;SDS011;46541;49.894;10.886;2023-12-14T02:36:13;26.63;;;13.43;;
60700;SDS011;46541;49.894;10.886;2023-12-14T02:38:40;28.67;;;14.05;;
60700;SDS011;46541;49.894;10.886;2023-12-14T02:41:07;35.00;;;14.38;;
60700;SDS011;46541;49.894;10.886;2023-12-14T02:43:33;26.63;;;13.32;;
60700;SDS011;46541;49.894;10.886;2023-12-14T02:46:00;28.10;;;14.18;;
60700;SDS011;46541;49.894;10.886;2023-12-14T02:48:28;25.33;;;13.05;;
60700;SDS011;46541;49.894;10.886;2023-12-14T02:50:56;27.25;;;13.20;;
60700;SDS011;46541;49.894;10.886;2023-12-14T02:53:23;28.17;;;14.35;;
60700;SDS011;46541;49.894;10.886;2023-12-14T02:55:50;27.15;;;13.82;;
60700;SDS011;46541;49.894;10.886;2023-12-14T02:58:17;29.88;;;15.05;;
60700;SDS011;46541;49.894;10.886;2023-12-14T03:00:44;31.40;;;14.75;;
60700;SDS011;46541;49.894;10.886;2023-12-14T03:03:11;31.90;;;15.05;;
60700;SDS011;46541;49.894;10.886;2023-12-14T03:05:38;29.13;;;14.07;;
60700;SDS011;46541;49.894;10.886;2023-12-14T03:08:05;32.10;;;16.13;;
60700;SDS011;46541;49.894;10.886;2023-12-14T03:10:32;37.22;;;16.67;;
60700;SDS011;46541;49.894;10.886;2023-12-14T03:12:58;31.20;;;14.95;;
60700;SDS011;46541;49.894;10.886;2023-12-14T03:15:25;37.28;;;15.23;;
60700;SDS011;46541;49.894;10.886;2023-12-14T03:17:52;31.20;;;16.45;;
60700;SDS011;46541;49.894;10.886;2023-12-14T03:20:19;32.72;;;17.00;;
60700;SDS011;46541;49.894;10.886;2023-12-14T03:22:45;31.42;;;15.48;;
60700;SDS011;46541;49.894;10.886;2023-12-14T03:25:12;33.35;;;15.27;;
60700;SDS011;46541;49.894;10.886;2023-12-14T03:27:39;31.80;;;14.48;;
60700;SDS011;46541;49.894;10.886;2023-12-14T03:30:06;38.00;;;16.50;;
60700;SDS011;46541;49.894;10.886;2023-12-14T03:32:36;33.08;;;15.75;;
60700;SDS011;46541;49.894;10.886;2023-12-14T03:35:03;29.52;;;14.95;;
60700;SDS011;46541;49.894;10.886;2023-12-14T03:37:30;33.30;;;15.05;;
60700;SDS011;46541;49.894;10.886;2023-12-14T03:39:57;31.90;;;14.95;;
60700;SDS011;46541;49.894;10.886;2023-12-14T03:42:24;30.65;;;15.40;;
60700;SDS011;46541;49.894;10.886;2023-12-14T03:44:51;29.30;;;14.18;;
60700;SDS011;46541;49.894;10.886;2023-12-14T03:47:17;26.67;;;13.30;;
60700;SDS011;46541;49.894;10.886;2023-12-14T03:49:44;26.92;;;13.60;;
60700;SDS011;46541;49.894;10.886;2023-12-14T03:52:11;30.13;;;13.68;;
60700;SDS011;46541;49.894;10.886;2023-12-14T03:54:38;25.30;;;12.60;;
60700;SDS011;46541;49.894;10.886;2023-12-14T03:57:05;24.70;;;13.23;;
60700;SDS011;46541;49.894;10.886;2023-12-14T03:59:32;24.85;;;12.30;;
60700;SDS011;46541;49.894;10.886;2023-12-14T04:01:59;26.17;;;11.88;;
60700;SDS011;46541;49.894;10.886;2023-12-14T04:04:26;22.73;;;11.80;;
60700;SDS011;46541;49.894;10.886;2023-12-14T04:06:52;18.33;;;11.30;;
60700;SDS011;46541;49.894;10.886;2023-12-14T04:09:19;21.27;;;11.93;;
60700;SDS011;46541;49.894;10.886;2023-12-14T04:11:46;20.25;;;11.02;;
60700;SDS011;46541;49.894;10.886;2023-12-14T04:14:13;17.55;;;9.90;;
60700;SDS011;46541;49.894;10.886;2023-12-14T04:16:39;18.42;;;10.32;;
60700;SDS011;46541;49.894;10.886;2023-12-14T04:19:06;15.23;;;8.75;;
60700;SDS011;46541;49.894;10.886;2023-12-14T04:21:36;19.55;;;10.13;;
60700;SDS011;46541;49.894;10.886;2023-12-14T04:24:03;17.33;;;9.45;;
60700;SDS011;46541;49.894;10.886;2023-12-14T04:26:30;18.75;;;10.65;;
60700;SDS011;46541;49.894;10.886;2023-12-14T04:28:57;26.58;;;12.18;;
60700;SDS011;46541;49.894;10.886;2023-12-14T04:31:24;31.48;;;13.05;;
60700;SDS011;46541;49.894;10.886;2023-12-14T04:33:51;25.95;;;11.93;;
60700;SDS011;46541;49.894;10.886;2023-12-14T04:36:18;38.25;;;15.10;;
60700;SDS011;46541;49.894;10.886;2023-12-14T04:38:44;40.70;;;15.43;;
60700;SDS011;46541;49.894;10.886;2023-12-14T04:41:12;38.45;;;14.73;;
60700;SDS011;46541;49.894;10.886;2023-12-14T04:43:40;32.47;;;14.13;;
60700;SDS011;46541;49.894;10.886;2023-12-14T04:46:06;35.40;;;14.65;;
60700;SDS011;46541;49.894;10.886;2023-12-14T04:48:33;43.95;;;14.13;;
60700;SDS011;46541;49.894;10.886;2023-12-14T04:51:00;47.20;;;16.20;;
60700;SDS011;46541;49.894;10.886;2023-12-14T04:53:27;43.00;;;15.60;;
60700;SDS011;46541;49.894;10.886;2023-12-14T04:55:54;39.80;;;15.38;;
60700;SDS011;46541;49.894;10.886;2023-12-14T04:58:21;39.92;;;13.82;;
60700;SDS011;46541;49.894;10.886;2023-12-14T05:00:47;34.08;;;13.88;;
60700;SDS011;46541;49.894;10.886;2023-12-14T05:03:14;31.80;;;12.48;;
60700;SDS011;46541;49.894;10.886;2023-12-14T05:05:41;31.48;;;13.82;;
60700;SDS011;46541;49.894;10.886;2023-12-14T05:08:08;29.98;;;12.50;;
60700;SDS011;46541;49.894;10.886;2023-12-14T05:10:35;29.20;;;11.63;;
60700;SDS011;46541;49.894;10.886;2023-12-14T05:13:02;30.80;;;12.88;;
60700;SDS011;46541;49.894;10.886;2023-12-14T05:15:29;21.70;;;11.60;;
60700;SDS011;46541;49.894;10.886;2023-12-14T05:17:57;21.35;;;11.77;;
60700;SDS011;46541;49.894;10.886;2023-12-14T05:20:24;18.05;;;10.27;;
60700;SDS011;46541;49.894;10.886;2023-12-14T05:22:50;18.30;;;10.23;;
60700;SDS011;46541;49.894;10.886;2023-12-14T05:25:17;18.77;;;10.65;;
60700;SDS011;46541;49.894;10.886;2023-12-14T05:27:44;17.85;;;10.35;;
60700;SDS011;46541;49.894;10.886;2023-12-14T05:30:11;22.17;;;10.82;;
60700;SDS011;46541;49.894;10.886;2023-12-14T05:32:38;17.50;;;9.57;;
60700;SDS011;46541;49.894;10.886;2023-12-14T05:35:06;15.85;;;8.88;;
60700;SDS011;46541;49.894;10.886;2023-12-14T05:37:33;15.85;;;9.10;;
60700;SDS011;46541;49.894;10.886;2023-12-14T05:40:01;17.88;;;9.60;;
60700;SDS011;46541;49.894;10.886;2023-12-14T05:42:28;17.48;;;10.20;;
60700;SDS011;46541;49.894;10.886;2023-12-14T05:44:55;16.63;;;9.50;;
60700;SDS011;46541;49.894;10.886;2023-12-14T05:47:22;18.77;;;10.98;;
60700;SDS011;46541;49.894;10.886;2023-12-14T05:49:49;16.33;;;9.93;;
60700;SDS011;46541;49.894;10.886;2023-12-14T05:52:16;18.52;;;10.10;;
60700;SDS011;46541;49.894;10.886;2023-12-14T05:54:43;19.08;;;10.68;;
60700;SDS011;46541;49.894;10.886;2023-12-14T05:57:09;18.63;;;9.80;;
60700;SDS011;46541;49.894;10.886;2023-12-14T05:59:39;22.50;;;11.98;;
60700;SDS011;46541;49.894;10.886;2023-12-14T06:02:05;25.33;;;12.93;;
60700;SDS011;46541;49.894;10.886;2023-12-14T06:04:33;26.33;;;12.85;;
60700;SDS011;46541;49.894;10.886;2023-12-14T06:07:00;33.58;;;14.25;;
60700;SDS011;46541;49.894;10.886;2023-12-14T06:09:26;27.23;;;14.07;;
60700;SDS011;46541;49.894;10.886;2023-12-14T06:12:03;32.00;;;14.48;;
60700;SDS011;46541;49.894;10.886;2023-12-14T06:14:31;32.30;;;14.35;;
60700;SDS011;46541;49.894;10.886;2023-12-14T06:16:58;30.63;;;16.48;;
60700;SDS011;46541;49.894;10.886;2023-12-14T06:19:25;34.33;;;14.93;;
60700;SDS011;46541;49.894;10.886;2023-12-14T06:21:51;29.02;;;14.48;;
60700;SDS011;46541;49.894;10.886;2023-12-14T06:24:18;28.23;;;13.93;;
60700;SDS011;46541;49.894;10.886;2023-12-14T06:26:47;39.92;;;17.13;;
60700;SDS011;46541;49.894;10.886;2023-12-14T06:29:14;38.33;;;17.13;;
60700;SDS011;46541;49.894;10.886;2023-12-14T06:31:41;31.33;;;16.52;;
60700;SDS011;46541;49.894;10.886;2023-12-14T06:34:07;35.53;;;18.13;;
60700;SDS011;46541;49.894;10.886;2023-12-14T06:36:34;53.42;;;23.30;;
60700;SDS011;46541;49.894;10.886;2023-12-14T06:39:01;48.63;;;23.83;;
60700;SDS011;46541;49.894;10.886;2023-12-14T06:41:31;44.53;;;20.70;;
60700;SDS011;46541;49.894;10.886;2023-12-14T06:43:58;47.15;;;21.77;;
60700;SDS011;46541;49.894;10.886;2023-12-14T06:46:25;47.47;;;21.02;;
60700;SDS011;46541;49.894;10.886;2023-12-14T06:48:51;45.53;;;18.52;;
60700;SDS011;46541;49.894;10.886;2023-12-14T06:51:20;37.53;;;16.88;;
60700;SDS011;46541;49.894;10.886;2023-12-14T06:53:47;38.05;;;17.08;;
60700;SDS011;46541;49.894;10.886;2023-12-14T06:56:14;36.72;;;17.08;;
60700;SDS011;46541;49.894;10.886;2023-12-14T06:58:42;37.63;;;17.92;;
60700;SDS011;46541;49.894;10.886;2023-12-14T07:01:13;41.05;;;17.75;;
60700;SDS011;46541;49.894;10.886;2023-12-14T07:03:41;36.55;;;17.20;;
60700;SDS011;46541;49.894;10.886;2023-12-14T07:06:17;40.72;;;17.58;;
60700;SDS011;46541;49.894;10.886;2023-12-14T07:08:44;33.45;;;16.30;;
60700;SDS011;46541;49.894;10.886;2023-12-14T07:11:11;34.97;;;16.27;;
60700;SDS011;46541;49.894;10.886;2023-12-14T07:13:39;34.38;;;17.70;;
60700;SDS011;46541;49.894;10.886;2023-12-14T07:16:06;35.88;;;16.30;;
60700;SDS011;46541;49.894;10.886;2023-12-14T07:18:38;34.20;;;16.17;;
60700;SDS011;46541;49.894;10.886;2023-12-14T07:21:07;29.15;;;15.15;;
60700;SDS011;46541;49.894;10.886;2023-12-14T07:23:34;29.77;;;14.52;;
60700;SDS011;46541;49.894;10.886;2023-12-14T07:26:02;30.40;;;14.82;;
60700;SDS011;46541;49.894;10.886;2023-12-14T07:28:32;29.20;;;14.18;;
60700;SDS011;46541;49.894;10.886;2023-12-14T07:30:59;29.40;;;15.02;;
60700;SDS011;46541;49.894;10.886;2023-12-14T07:33:26;26.50;;;14.35;;
60700;SDS011;46541;49.894;10.886;2023-12-14T07:35:52;33.67;;;15.20;;
60700;SDS011;46541;49.894;10.886;2023-12-14T07:38:19;27.83;;;13.82;;
60700;SDS011;46541;49.894;10.886;2023-12-14T07:40:46;28.13;;;14.20;;
60700;SDS011;46541;49.894;10.886;2023-12-14T07:43:13;25.90;;;14.82;;
60700;SDS011;46541;49.894;10.886;2023-12-14T07:45:40;25.55;;;13.90;;
60700;SDS011;46541;49.894;10.886;2023-12-14T07:48:06;30.95;;;14.50;;
60700;SDS011;46541;49.894;10.886;2023-12-14T07:50:34;29.50;;;14.95;;
60700;SDS011;46541;49.894;10.886;2023-12-14T07:53:01;28.38;;;14.90;;
60700;SDS011;46541;49.894;10.886;2023-12-14T07:55:28;25.02;;;14.27;;
60700;SDS011;46541;49.894;10.886;2023-12-14T07:57:55;28.73;;;14.93;;
60700;SDS011;46541;49.894;10.886;2023-12-14T08:00:22;24.63;;;13.95;;
60700;SDS011;46541;49.894;10.886;2023-12-14T08:02:49;24.20;;;13.77;;
60700;SDS011;46541;49.894;10.886;2023-12-14T08:05:15;28.33;;;16.48;;
60700;SDS011;46541;49.894;10.886;2023-12-14T08:07:42;25.45;;;14.93;;
60700;SDS011;46541;49.894;10.886;2023-12-14T08:10:09;26.58;;;14.63;;
60700;SDS011;46541;49.894;10.886;2023-12-14T08:12:36;22.48;;;13.15;;
60700;SDS011;46541;49.894;10.886;2023-12-14T08:15:03;29.67;;;15.38;;
60700;SDS011;46541;49.894;10.886;2023-12-14T08:17:30;27.30;;;15.23;;
60700;SDS011;46541;49.894;10.886;2023-12-14T08:19:57;34.90;;;17.17;;
60700;SDS011;46541;49.894;10.886;2023-12-14T08:22:24;34.85;;;18.95;;
60700;SDS011;46541;49.894;10.886;2023-12-14T08:24:51;30.30;;;16.73;;
60700;SDS011;46541;49.894;10.886;2023-12-14T08:27:18;26.55;;;14.88;;
60700;SDS011;46541;49.894;10.886;2023-12-14T08:29:44;25.83;;;14.98;;
60700;SDS011;46541;49.894;10.886;2023-12-14T08:32:12;23.63;;;14.27;;
60700;SDS011;46541;49.894;10.886;2023-12-14T08:34:39;29.38;;;15.98;;
60700;SDS011;46541;49.894;10.886;2023-12-14T08:37:06;26.58;;;13.63;;
60700;SDS011;46541;49.894;10.886;2023-12-14T08:39:33;22.60;;;13.45;;
60700;SDS011;46541;49.894;10.886;2023-12-14T08:42:00;19.85;;;12.50;;
60700;SDS011;46541;49.894;10.886;2023-12-14T08:44:27;23.27;;;13.55;;
60700;SDS011;46541;49.894;10.886;2023-12-14T08:46:54;24.02;;;13.55;;
60700;SDS011;46541;49.894;10.886;2023-12-14T08:49:20;23.50;;;13.63;;
60700;SDS011;46541;49.894;10.886;2023-12-14T08:51:49;23.02;;;13.50;;
60700;SDS011;46541;49.894;10.886;2023-12-14T08:54:16;22.45;;;14.57;;
60700;SDS011;46541;49.894;10.886;2023-12-14T08:56:43;24.30;;;14.05;;
60700;SDS011;46541;49.894;10.886;2023-12-14T08:59:10;22.20;;;13.07;;
60700;SDS011;46541;49.894;10.886;2023-12-14T09:01:37;25.83;;;13.73;;
60700;SDS011;46541;49.894;10.886;2023-12-14T09:04:04;21.35;;;13.02;;
60700;SDS011;46541;49.894;10.886;2023-12-14T09:06:31;23.63;;;14.43;;
60700;SDS011;46541;49.894;10.886;2023-12-14T09:08:57;24.73;;;14.07;;
60700;SDS011;46541;49.894;10.886;2023-12-14T09:11:24;28.27;;;15.55;;
60700;SDS011;46541;49.894;10.886;2023-12-14T09:13:51;24.35;;;14.80;;
60700;SDS011;46541;49.894;10.886;2023-12-14T09:16:18;24.77;;;14.40;;
60700;SDS011;46541;49.894;10.886;2023-12-14T09:18:45;22.48;;;14.20;;
60700;SDS011;46541;49.894;10.886;2023-12-14T09:21:12;27.23;;;14.07;;
60700;SDS011;46541;49.894;10.886;2023-12-14T09:23:39;19.13;;;12.55;;
60700;SDS011;46541;49.894;10.886;2023-12-14T09:26:07;23.05;;;12.80;;
60700;SDS011;46541;49.894;10.886;2023-12-14T09:28:34;22.15;;;13.43;;
60700;SDS011;46541;49.894;10.886;2023-12-14T09:31:01;19.65;;;12.48;;
60700;SDS011;46541;49.894;10.886;2023-12-14T09:33:30;19.25;;;11.93;;
60700;SDS011;46541;49.894;10.886;2023-12-14T09:35:57;20.92;;;12.07;;
60700;SDS011;46541;49.894;10.886;2023-12-14T09:38:24;22.15;;;13.63;;
60700;SDS011;46541;49.894;10.886;2023-12-14T09:40:50;24.85;;;13.90;;
60700;SDS011;46541;49.894;10.886;2023-12-14T09:43:17;24.40;;;13.52;;
60700;SDS011;46541;49.894;10.886;2023-12-14T09:45:44;21.52;;;13.82;;
60700;SDS011;46541;49.894;10.886;2023-12-14T09:48:13;20.90;;;12.95;;
60700;SDS011;46541;49.894;10.886;2023-12-14T09:50:42;20.67;;;13.20;;
60700;SDS011;46541;49.894;10.886;2023-12-14T09:53:10;24.20;;;14.20;;
60700;SDS011;46541;49.894;10.886;2023-12-14T09:55:37;26.05;;;15.90;;
60700;SDS011;46541;49.894;10.886;2023-12-14T09:58:04;28.25;;;16.05;;
60700;SDS011;46541;49.894;10.886;2023-12-14T10:00:33;27.42;;;16.95;;
60700;SDS011;46541;49.894;10.886;2023-12-14T10:03:23;21.13;;;13.77;;
60700;SDS011;46541;49.894;10.886;2023-12-14T10:05:49;23.27;;;13.40;;
60700;SDS011;46541;49.894;10.886;2023-12-14T10:08:16;23.20;;;13.52;;
60700;SDS011;46541;49.894;10.886;2023-12-14T10:10:44;23.45;;;14.35;;
60700;SDS011;46541;49.894;10.886;2023-12-14T10:13:15;24.55;;;13.75;;
60700;SDS011;46541;49.894;10.886;2023-12-14T10:15:43;25.90;;;13.57;;
60700;SDS011;46541;49.894;10.886;2023-12-14T10:18:11;24.23;;;13.63;;
60700;SDS011;46541;49.894;10.886;2023-12-14T10:20:38;22.70;;;13.55;;
60700;SDS011;46541;49.894;10.886;2023-12-14T10:23:06;22.00;;;14.35;;
60700;SDS011;46541;49.894;10.886;2023-12-14T10:25:34;24.17;;;14.85;;
60700;SDS011;46541;49.894;10.886;2023-12-14T10:28:02;26.77;;;15.15;;
60700;SDS011;46541;49.894;10.886;2023-12-14T10:30:29;19.33;;;12.23;;
60700;SDS011;46541;49.894;10.886;2023-12-14T10:32:59;21.95;;;14.07;;
60700;SDS011;46541;49.894;10.886;2023-12-14T10:35:26;21.33;;;14.15;;
60700;SDS011;46541;49.894;10.886;2023-12-14T10:37:53;22.20;;;13.43;;
60700;SDS011;46541;49.894;10.886;2023-12-14T10:40:22;23.48;;;12.80;;
60700;SDS011;46541;49.894;10.886;2023-12-14T10:42:51;26.08;;;14.07;;
60700;SDS011;46541;49.894;10.886;2023-12-14T10:45:18;23.13;;;15.30;;
60700;SDS011;46541;49.894;10.886;2023-12-14T10:47:49;25.15;;;14.85;;
60700;SDS011;46541;49.894;10.886;2023-12-14T10:50:17;21.65;;;15.38;;
60700;SDS011;46541;49.894;10.886;2023-12-14T10:52:45;19.35;;;12.70;;
60700;SDS011;46541;49.894;10.886;2023-12-14T10:55:15;20.98;;;13.20;;
60700;SDS011;46541;49.894;10.886;2023-12-14T10:57:48;18.38;;;11.82;;
60700;SDS011;46541;49.894;10.886;2023-12-14T11:00:18;22.80;;;13.98;;
60700;SDS011;46541;49.894;10.886;2023-12-14T11:02:45;21.83;;;12.73;;
60700;SDS011;46541;49.894;10.886;2023-12-14T11:05:13;20.05;;;11.90;;
60700;SDS011;46541;49.894;10.886;2023-12-14T11:10:21;21.95;;;15.02;;
60700;SDS011;46541;49.894;10.886;2023-12-14T11:13:01;24.08;;;15.98;;
60700;SDS011;46541;49.894;10.886;2023-12-14T11:15:30;22.23;;;14.18;;
60700;SDS011;46541;49.894;10.886;2023-12-14T11:20:47;22.50;;;15.40;;
60700;SDS011;46541;49.894;10.886;2023-12-14T11:23:31;27.15;;;15.40;;
60700;SDS011;46541;49.894;10.886;2023-12-14T11:26:06;17.47;;;11.53;;
60700;SDS011;46541;49.894;10.886;2023-12-14T11:28:36;20.67;;;12.48;;
60700;SDS011;46541;49.894;10.886;2023-12-14T11:31:04;17.67;;;11.35;;
60700;SDS011;46541;49.894;10.886;2023-12-14T11:33:34;20.52;;;12.07;;
60700;SDS011;46541;49.894;10.886;2023-12-14T11:36:07;23.85;;;12.60;;
60700;SDS011;46541;49.894;10.886;2023-12-14T11:38:35;22.73;;;15.63;;
60700;SDS011;46541;49.894;10.886;2023-12-14T11:41:02;19.50;;;13.93;;
60700;SDS011;46541;49.894;10.886;2023-12-14T11:43:29;24.38;;;14.95;;
60700;SDS011;46541;49.894;10.886;2023-12-14T11:45:56;27.02;;;15.32;;
60700;SDS011;46541;49.894;10.886;2023-12-14T11:48:23;28.70;;;17.17;;
60700;SDS011;46541;49.894;10.886;2023-12-14T11:50:50;26.90;;;16.42;;
60700;SDS011;46541;49.894;10.886;2023-12-14T11:53:17;31.65;;;17.10;;
60700;SDS011;46541;49.894;10.886;2023-12-14T11:55:44;39.15;;;19.83;;
60700;SDS011;46541;49.894;10.886;2023-12-14T11:58:12;56.85;;;27.52;;
60700;SDS011;46541;49.894;10.886;2023-12-14T12:00:41;26.27;;;15.55;;
60700;SDS011;46541;49.894;10.886;2023-12-14T12:03:18;24.15;;;15.80;;
60700;SDS011;46541;49.894;10.886;2023-12-14T12:05:47;24.42;;;15.65;;
60700;SDS011;46541;49.894;10.886;2023-12-14T12:08:16;28.67;;;16.90;;
60700;SDS011;46541;49.894;10.886;2023-12-14T12:10:45;22.13;;;14.55;;
60700;SDS011;46541;49.894;10.886;2023-12-14T12:15:44;35.10;;;20.98;;
60700;SDS011;46541;49.894;10.886;2023-12-14T12:18:20;27.58;;;16.10;;
60700;SDS011;46541;49.894;10.886;2023-12-14T12:20:47;23.75;;;15.13;;
60700;SDS011;46541;49.894;10.886;2023-12-14T12:23:13;24.42;;;14.43;;
60700;SDS011;46541;49.894;10.886;2023-12-14T12:25:40;23.95;;;14.68;;
60700;SDS011;46541;49.894;10.886;2023-12-14T12:28:07;25.13;;;15.52;;
60700;SDS011;46541;49.894;10.886;2023-12-14T12:30:34;27.95;;;15.82;;
60700;SDS011;46541;49.894;10.886;2023-12-14T12:33:05;26.67;;;16.48;;
60700;SDS011;46541;49.894;10.886;2023-12-14T12:35:33;22.30;;;14.18;;
60700;SDS011;46541;49.894;10.886;2023-12-14T12:38:00;20.13;;;13.70;;
60700;SDS011;46541;49.894;10.886;2023-12-14T12:40:28;23.73;;;13.85;;
60700;SDS011;46541;49.894;10.886;2023-12-14T12:42:57;24.05;;;14.57;;
60700;SDS011;46541;49.894;10.886;2023-12-14T12:45:23;18.10;;;11.80;;
60700;SDS011;46541;49.894;10.886;2023-12-14T12:47:54;19.15;;;13.05;;
60700;SDS011;46541;49.894;10.886;2023-12-14T12:50:21;20.08;;;12.68;;
60700;SDS011;46541;49.894;10.886;2023-12-14T12:52:48;24.67;;;14.15;;
60700;SDS011;46541;49.894;10.886;2023-12-14T12:55:16;22.80;;;14.25;;
60700;SDS011;46541;49.894;10.886;2023-12-14T12:57:43;24.55;;;14.90;;
60700;SDS011;46541;49.894;10.886;2023-12-14T13:00:10;26.88;;;16.73;;
60700;SDS011;46541;49.894;10.886;2023-12-14T13:02:38;31.33;;;16.17;;
60700;SDS011;46541;49.894;10.886;2023-12-14T13:05:06;28.80;;;16.92;;
60700;SDS011;46541;49.894;10.886;2023-12-14T13:07:43;27.08;;;15.80;;
60700;SDS011;46541;49.894;10.886;2023-12-14T13:10:10;25.10;;;13.80;;
60700;SDS011;46541;49.894;10.886;2023-12-14T13:12:53;21.23;;;13.52;;
60700;SDS011;46541;49.894;10.886;2023-12-14T13:15:21;18.88;;;12.30;;
60700;SDS011;46541;49.894;10.886;2023-12-14T13:17:53;24.50;;;12.52;;
60700;SDS011;46541;49.894;10.886;2023-12-14T13:20:20;19.38;;;11.73;;
60700;SDS011;46541;49.894;10.886;2023-12-14T13:22:47;16.63;;;10.95;;
60700;SDS011;46541;49.894;10.886;2023-12-14T13:25:14;17.40;;;10.98;;
60700;SDS011;46541;49.894;10.886;2023-12-14T13:27:41;17.80;;;10.70;;
60700;SDS011;46541;49.894;10.886;2023-12-14T13:30:10;14.02;;;10.10;;
60700;SDS011;46541;49.894;10.886;2023-12-14T13:32:37;20.50;;;11.48;;
60700;SDS011;46541;49.894;10.886;2023-12-14T13:35:04;25.67;;;10.98;;
60700;SDS011;46541;49.894;10.886;2023-12-14T13:37:32;19.20;;;10.50;;
60700;SDS011;46541;49.894;10.886;2023-12-14T13:40:00;20.52;;;12.15;;
60700;SDS011;46541;49.894;10.886;2023-12-14T13:42:27;20.33;;;11.82;;
60700;SDS011;46541;49.894;10.886;2023-12-14T13:44:54;15.73;;;10.45;;
60700;SDS011;46541;49.894;10.886;2023-12-14T13:47:20;18.70;;;10.95;;
60700;SDS011;46541;49.894;10.886;2023-12-14T13:49:48;24.80;;;12.98;;
60700;SDS011;46541;49.894;10.886;2023-12-14T13:52:14;21.35;;;11.60;;
60700;SDS011;46541;49.894;10.886;2023-12-14T13:54:41;21.33;;;12.32;;
60700;SDS011;46541;49.894;10.886;2023-12-14T13:57:08;23.05;;;13.10;;
60700;SDS011;46541;49.894;10.886;2023-12-14T13:59:35;24.92;;;15.50;;
60700;SDS011;46541;49.894;10.886;2023-12-14T14:02:01;20.52;;;11.93;;
60700;SDS011;46541;49.894;10.886;2023-12-14T14:04:28;21.05;;;11.23;;
60700;SDS011;46541;49.894;10.886;2023-12-14T14:06:55;12.35;;;7.00;;
60700;SDS011;46541;49.894;10.886;2023-12-14T14:09:22;9.30;;;6.50;;
60700;SDS011;46541;49.894;10.886;2023-12-14T14:11:49;10.38;;;7.20;;
60700;SDS011;46541;49.894;10.886;2023-12-14T14:14:17;13.88;;;8.02;;
60700;SDS011;46541;49.894;10.886;2023-12-14T14:16:44;18.80;;;10.88;;
60700;SDS011;46541;49.894;10.886;2023-12-14T14:19:11;22.42;;;11.48;;
60700;SDS011;46541;49.894;10.886;2023-12-14T14:21:38;18.13;;;9.45;;